Time;durP1;ratioP1;P1;durP2;ratioP2;P2;SDS_P1;SDS_P2;PMS_P1;PMS_P2;Temp;Humidity;BMP_temperature;BMP_pressure;BME280_temperature;BME280_humidity;BME280_pressure;Samples;Min_cycle;Max_cycle;Signal;HPM_P1;HPM_P2
2023/06/30 00:00:33;;;;;;;32.73;22.93;;;;;;;19.51;100.00;101151.78;5044973;28;20739;-75
2023/06/30 00:02:59;;;;;;;28.17;21.13;;;;;;;19.49;100.00;101149.19;5041611;28;20293;-75
2023/06/30 00:05:25;;;;;;;28.57;20.03;;;;;;;19.47;100.00;101152.69;5046010;28;20208;-75
2023/06/30 00:07:54;;;;;;;30.00;21.30;;;;;;;19.46;100.00;101153.56;5044623;28;20225;-75
2023/06/30 00:10:21;;;;;;;29.00;21.27;;;;;;;19.45;100.00;101152.72;5044946;28;20610;-75
2023/06/30 00:12:47;;;;;;;29.80;20.70;;;;;;;19.45;100.00;101160.53;5055676;28;20629;-75
2023/06/30 00:15:12;;;;;;;28.47;20.50;;;;;;;19.46;100.00;101162.22;5044527;28;20273;-75
2023/06/30 00:17:38;;;;;;;25.67;19.77;;;;;;;19.40;100.00;101161.44;5046548;28;20678;-75
2023/06/30 00:20:05;;;;;;;26.27;19.70;;;;;;;19.37;100.00;101157.16;5040598;28;20226;-75
2023/06/30 00:22:31;;;;;;;24.17;18.87;;;;;;;19.39;100.00;101147.59;5047882;28;20597;-73
2023/06/30 00:24:58;;;;;;;23.63;18.43;;;;;;;19.37;100.00;101149.34;5046589;28;20211;-74
2023/06/30 00:27:24;;;;;;;19.97;13.93;;;;;;;19.32;100.00;101148.53;5052439;28;20210;-73
2023/06/30 00:29:49;;;;;;;15.53;12.30;;;;;;;19.30;100.00;101146.84;5048262;28;20281;-75
2023/06/30 00:32:15;;;;;;;10.67;8.83;;;;;;;19.26;100.00;101158.97;5045744;28;20191;-74
2023/06/30 00:34:41;;;;;;;10.83;7.57;;;;;;;19.25;100.00;101156.44;5044662;28;20225;-74
2023/06/30 00:37:06;;;;;;;8.83;6.80;;;;;;;19.21;100.00;101149.50;5043781;28;20214;-74
2023/06/30 00:39:32;;;;;;;8.77;6.67;;;;;;;19.18;100.00;101145.22;5053661;28;20214;-74
2023/06/30 00:41:59;;;;;;;6.93;5.37;;;;;;;19.12;100.00;101142.66;5060070;28;20669;-74
2023/06/30 00:44:25;;;;;;;6.20;5.60;;;;;;;19.13;100.00;101144.41;5027551;28;20209;-74
2023/06/30 00:46:50;;;;;;;7.50;5.60;;;;;;;19.17;100.00;101140.03;5049064;28;20213;-74
2023/06/30 00:49:16;;;;;;;7.77;5.30;;;;;;;19.13;100.00;101138.34;5042961;28;20692;-74
2023/06/30 00:51:41;;;;;;;6.57;4.90;;;;;;;19.09;100.00;101127.13;5042074;28;20194;-74
2023/06/30 00:54:07;;;;;;;6.47;5.37;;;;;;;19.05;100.00;101129.75;5061826;28;20258;-75
2023/06/30 00:56:33;;;;;;;6.47;4.40;;;;;;;19.04;100.00;101128.91;5054811;28;20210;-74
2023/06/30 00:58:58;;;;;;;5.50;3.63;;;;;;;18.98;100.00;101136.75;5047181;28;20198;-75
2023/06/30 01:01:24;;;;;;;7.20;4.13;;;;;;;18.94;100.00;101140.28;5040705;28;20929;-74
2023/06/30 01:03:59;;;;;;;3.70;2.73;;;;;;;18.96;100.00;101145.41;5042477;28;20232;-74
2023/06/30 01:06:32;;;;;;;3.03;2.27;;;;;;;18.91;100.00;101145.47;5039462;28;20226;-74
2023/06/30 01:09:04;;;;;;;3.93;2.30;;;;;;;18.92;100.00;101148.91;5044372;28;20200;-74
2023/06/30 01:11:32;;;;;;;2.47;1.67;;;;;;;18.86;100.00;101154.19;5056731;28;20885;-74
2023/06/30 01:14:01;;;;;;;2.70;1.60;;;;;;;18.86;100.00;101154.19;5044069;28;20634;-74
2023/06/30 01:16:28;;;;;;;1.57;1.40;;;;;;;18.86;100.00;101162.84;5041912;28;20215;-74
2023/06/30 01:18:55;;;;;;;5.93;1.50;;;;;;;18.87;100.00;101156.78;5045508;28;20220;-74
2023/06/30 01:21:22;;;;;;;5.70;1.70;;;;;;;18.84;100.00;101151.59;5057721;28;20384;-74
2023/06/30 01:24:03;;;;;;;2.67;1.60;;;;;;;18.84;100.00;101153.34;5057953;28;20196;-75
2023/06/30 01:26:33;;;;;;;2.97;1.67;;;;;;;18.81;100.00;101162.03;5042296;28;20246;-74
2023/06/30 01:29:01;;;;;;;4.60;1.60;;;;;;;18.77;100.00;101149.94;5048707;28;20197;-75
2023/06/30 01:31:31;;;;;;;2.83;1.50;;;;;;;18.77;100.00;101154.25;5044569;28;20640;-75
2023/06/30 01:34:00;;;;;;;2.93;1.70;;;;;;;18.71;100.00;101162.97;5043594;28;20290;-74
2023/06/30 01:36:26;;;;;;;2.50;1.70;;;;;;;18.73;100.00;101162.94;5033861;28;20217;-74
2023/06/30 01:38:52;;;;;;;6.37;1.93;;;;;;;18.70;100.00;101157.81;5056661;28;20181;-74
2023/06/30 01:41:20;;;;;;;4.90;1.67;;;;;;;18.69;100.00;101164.72;5048070;28;20589;-74
2023/06/30 01:43:45;;;;;;;2.90;1.57;;;;;;;18.71;100.00;101165.56;5050846;28;20320;-74
2023/06/30 01:46:11;;;;;;;5.23;2.13;;;;;;;18.70;100.00;101155.22;5047885;28;20698;-75
2023/06/30 01:48:38;;;;;;;3.07;1.90;;;;;;;18.69;100.00;101153.47;5039661;28;20205;-75
2023/06/30 01:51:05;;;;;;;5.73;1.90;;;;;;;18.68;100.00;101154.34;5031938;28;20313;-75
2023/06/30 01:53:31;;;;;;;4.20;1.60;;;;;;;18.70;100.00;101150.00;5045113;28;20664;-74
2023/06/30 01:55:56;;;;;;;4.30;1.90;;;;;;;18.69;100.00;101146.53;5050804;28;20193;-74
2023/06/30 01:58:22;;;;;;;3.97;2.00;;;;;;;18.68;100.00;101149.16;5059993;28;20210;-75
2023/06/30 02:00:47;;;;;;;4.00;1.90;;;;;;;18.66;100.00;101159.53;5038040;28;20629;-74
2023/06/30 02:03:13;;;;;;;4.70;1.97;;;;;;;18.68;100.00;101169.91;5038938;28;20193;-74
2023/06/30 02:05:40;;;;;;;4.80;1.90;;;;;;;18.63;100.00;101169.09;5041103;28;21073;-74
2023/06/30 02:08:06;;;;;;;5.50;2.20;;;;;;;18.61;100.00;101160.47;5054450;28;20300;-74
2023/06/30 02:10:31;;;;;;;2.47;1.70;;;;;;;18.62;100.00;101165.66;5049234;28;20702;-74
2023/06/30 02:12:57;;;;;;;4.27;2.20;;;;;;;18.61;100.00;101157.88;5040856;28;20182;-74
2023/06/30 02:15:23;;;;;;;4.57;2.30;;;;;;;18.60;100.00;101153.56;5055241;28;20676;-74
2023/06/30 02:17:48;;;;;;;5.60;2.80;;;;;;;18.58;100.00;101142.31;5045492;28;20210;-74
2023/06/30 02:20:14;;;;;;;3.20;2.17;;;;;;;18.54;100.00;101138.91;5044390;28;20214;-74
2023/06/30 02:22:39;;;;;;;5.63;2.37;;;;;;;18.51;100.00;101132.88;5041777;28;20189;-74
2023/06/30 02:25:05;;;;;;;4.23;2.03;;;;;;;18.54;100.00;101136.31;5044359;28;20611;-74
2023/06/30 02:27:30;;;;;;;6.37;2.43;;;;;;;18.50;100.00;101142.38;5041287;28;20221;-74
2023/06/30 02:29:56;;;;;;;4.87;2.50;;;;;;;18.49;100.00;101135.50;5046766;28;20198;-74
2023/06/30 02:32:23;;;;;;;7.23;2.50;;;;;;;18.51;100.00;101144.09;5044946;28;20190;-74
2023/06/30 02:34:48;;;;;;;5.00;2.30;;;;;;;18.52;100.00;101147.56;5044135;28;20185;-74
2023/06/30 02:37:14;;;;;;;5.63;2.83;;;;;;;18.53;100.00;101149.28;5020093;28;20586;-75
2023/06/30 02:39:39;;;;;;;5.43;2.67;;;;;;;18.54;100.00;101153.59;5044379;28;20691;-74
2023/06/30 02:42:05;;;;;;;6.03;2.53;;;;;;;18.52;100.00;101157.94;5044729;28;20186;-74
2023/06/30 02:44:30;;;;;;;6.10;2.90;;;;;;;18.50;100.00;101157.94;5049926;28;20194;-74
2023/06/30 02:46:56;;;;;;;4.00;2.70;;;;;;;18.51;100.00;101153.63;5045957;28;20217;-74
2023/06/30 02:49:23;;;;;;;5.40;2.80;;;;;;;18.51;100.00;101164.84;5042570;28;20213;-74
2023/06/30 02:51:48;;;;;;;5.27;2.47;;;;;;;18.51;100.00;101167.44;5046964;28;20272;-74
2023/06/30 02:54:13;;;;;;;5.90;3.03;;;;;;;18.49;100.00;101164.03;5042507;28;20309;-74
2023/06/30 02:56:39;;;;;;;7.50;3.37;;;;;;;18.48;100.00;101161.44;5050415;28;20204;-74
2023/06/30 02:59:04;;;;;;;7.23;3.10;;;;;;;18.46;100.00;101164.03;5048783;28;20280;-75
2023/06/30 03:01:30;;;;;;;4.40;2.60;;;;;;;18.41;100.00;101160.63;5045001;28;20226;-74
2023/06/30 03:03:55;;;;;;;6.00;3.00;;;;;;;18.45;100.00;101167.50;5044181;28;20255;-75
2023/06/30 03:06:25;;;;;;;5.07;2.87;;;;;;;18.45;100.00;101174.41;5039654;28;20209;-74
2023/06/30 03:08:50;;;;;;;4.77;2.90;;;;;;;18.38;100.00;101167.56;5041072;28;20258;-74
2023/06/30 03:11:16;;;;;;;5.00;2.90;;;;;;;18.37;100.00;101165.84;5038846;28;20205;-74
2023/06/30 03:13:41;;;;;;;4.37;2.63;;;;;;;18.37;100.00;101161.50;5044914;28;20196;-74
2023/06/30 03:16:08;;;;;;;5.97;3.20;;;;;;;18.34;100.00;101168.44;5029502;28;20238;-74
2023/06/30 03:18:34;;;;;;;5.03;3.13;;;;;;;18.29;100.00;101162.41;5043970;28;20198;-74
2023/06/30 03:21:01;;;;;;;5.83;3.23;;;;;;;18.31;100.00;101160.66;5039091;28;20263;-74
2023/06/30 03:23:26;;;;;;;4.93;3.50;;;;;;;18.32;100.00;101164.97;5040452;28;20664;-75
2023/06/30 03:25:52;;;;;;;6.67;3.97;;;;;;;18.28;100.00;101160.69;5047119;28;20246;-74
2023/06/30 03:28:17;;;;;;;7.73;3.77;;;;;;;18.26;100.00;101165.88;5048595;28;20274;-75
2023/06/30 03:30:43;;;;;;;8.20;4.00;;;;;;;18.25;100.00;101166.75;5050394;28;20209;-75
2023/06/30 03:33:08;;;;;;;6.93;4.70;;;;;;;18.27;100.00;101166.72;5043422;28;20674;-74
2023/06/30 03:35:33;;;;;;;8.70;4.43;;;;;;;18.26;100.00;101162.41;5044692;28;20713;-74
2023/06/30 03:37:59;;;;;;;7.57;3.90;;;;;;;18.26;100.00;101167.59;5038706;28;20209;-74
2023/06/30 03:40:25;;;;;;;7.07;3.83;;;;;;;18.22;100.00;101166.78;5043042;28;20217;-74
2023/06/30 03:42:51;;;;;;;3.40;3.10;;;;;;;18.24;100.00;101166.75;5051466;28;20565;-75
2023/06/30 03:45:16;;;;;;;4.20;2.90;;;;;;;18.22;100.00;101161.59;5046244;28;20573;-76
2023/06/30 03:47:42;;;;;;;4.67;2.70;;;;;;;18.21;100.00;101153.81;5045604;28;20858;-74
2023/06/30 03:50:07;;;;;;;6.33;2.83;;;;;;;18.20;100.00;101152.94;5055154;28;20191;-74
2023/06/30 03:52:34;;;;;;;5.17;2.77;;;;;;;18.20;100.00;101144.31;5039363;28;20208;-74
2023/06/30 03:54:59;;;;;;;4.10;2.40;;;;;;;18.20;100.00;101137.38;5042299;28;20434;-75
2023/06/30 03:57:25;;;;;;;7.53;2.87;;;;;;;18.18;100.00;101151.22;5051188;28;20613;-74
2023/06/30 03:59:51;;;;;;;6.10;2.63;;;;;;;18.16;100.00;101150.38;5051013;28;20299;-75
2023/06/30 04:02:17;;;;;;;3.83;2.23;;;;;;;18.19;100.00;101147.78;5043797;28;20684;-75
2023/06/30 04:04:42;;;;;;;5.40;2.80;;;;;;;18.18;100.00;101152.09;5046181;28;20214;-75
2023/06/30 04:07:11;;;;;;;3.87;2.00;;;;;;;18.15;100.00;101144.34;5042291;28;20745;-75
2023/06/30 04:09:36;;;;;;;4.03;2.27;;;;;;;18.11;100.00;101132.28;5044566;28;20194;-74
2023/06/30 04:12:02;;;;;;;7.10;2.70;;;;;;;18.12;100.00;101136.59;5051478;28;20209;-75
2023/06/30 04:14:27;;;;;;;5.33;2.43;;;;;;;18.10;100.00;101138.31;5052245;28;20194;-75
2023/06/30 04:16:52;;;;;;;5.03;2.10;;;;;;;18.13;100.00;101145.22;5043656;28;20213;-75
2023/06/30 04:19:18;;;;;;;4.60;2.03;;;;;;;18.14;100.00;101147.81;5042240;28;20229;-75
2023/06/30 04:21:43;;;;;;;4.40;2.23;;;;;;;18.12;100.00;101151.28;5048561;28;20254;-75
2023/06/30 04:24:09;;;;;;;3.40;2.00;;;;;;;18.14;100.00;101145.22;5036966;28;20235;-75
2023/06/30 04:26:35;;;;;;;4.43;2.30;;;;;;;18.18;100.00;101149.50;5049406;28;20217;-74
2023/06/30 04:29:00;;;;;;;5.27;2.50;;;;;;;18.20;100.00;101150.34;5049424;28;20659;-75
2023/06/30 04:31:26;;;;;;;4.80;2.47;;;;;;;18.23;100.00;101145.16;5049219;28;20206;-75
2023/06/30 04:33:52;;;;;;;6.27;2.53;;;;;;;18.30;100.00;101143.38;5049261;28;20185;-75
2023/06/30 04:36:20;;;;;;;4.93;2.40;;;;;;;18.33;100.00;101149.44;5043161;28;20276;-75
2023/06/30 04:38:48;;;;;;;4.50;2.03;;;;;;;18.42;100.00;101145.94;5046765;28;20194;-75
2023/06/30 04:41:15;;;;;;;3.37;2.10;;;;;;;18.49;100.00;101145.00;5060361;28;20226;-75
2023/06/30 04:43:41;;;;;;;6.17;2.23;;;;;;;18.53;100.00;101149.28;5055464;28;20285;-75
2023/06/30 04:46:06;;;;;;;5.83;2.27;;;;;;;18.57;100.00;101149.22;5060282;28;20812;-75
2023/06/30 04:48:33;;;;;;;4.47;2.27;;;;;;;18.56;100.00;101150.13;5049401;28;20190;-75
2023/06/30 04:50:59;;;;;;;7.70;2.60;;;;;;;18.45;100.00;101146.75;5046916;28;20699;-74
2023/06/30 04:53:25;;;;;;;5.40;2.10;;;;;;;18.46;100.00;101157.97;5043845;28;20281;-75
2023/06/30 04:55:50;;;;;;;6.53;2.30;;;;;;;18.48;100.00;101164.91;5047162;28;20228;-75
2023/06/30 04:58:15;;;;;;;4.20;2.07;;;;;;;18.46;100.00;101152.78;5048205;28;20847;-74
2023/06/30 05:00:43;;;;;;;3.13;2.10;;;;;;;18.47;100.00;101155.38;5050195;28;20256;-75
2023/06/30 05:03:08;;;;;;;4.83;2.57;;;;;;;18.54;100.00;101154.47;5051111;28;20197;-75
2023/06/30 05:05:34;;;;;;;6.97;2.47;;;;;;;18.53;100.00;101163.13;5046545;28;20202;-75
2023/06/30 05:07:59;;;;;;;4.93;2.30;;;;;;;18.48;100.00;101161.44;5041517;28;20391;-75
2023/06/30 05:10:25;;;;;;;5.13;2.77;;;;;;;18.47;100.00;101160.56;5043872;28;20208;-75
2023/06/30 05:12:50;;;;;;;4.77;2.53;;;;;;;18.45;100.00;101167.50;5052688;28;20243;-75
2023/06/30 05:15:16;;;;;;;6.10;2.60;;;;;;;18.48;100.00;101164.91;5047588;28;21059;-75
2023/06/30 05:17:41;;;;;;;5.67;2.20;;;;;;;18.57;100.00;101158.78;5044571;28;20216;-74
2023/06/30 05:20:08;;;;;;;6.03;2.67;;;;;;;18.65;100.00;101160.41;5047658;28;20206;-75
2023/06/30 05:22:34;;;;;;;6.60;2.40;;;;;;;18.68;100.00;101168.19;5046090;28;20680;-75
2023/06/30 05:24:59;;;;;;;4.90;2.00;;;;;;;18.70;100.00;101165.59;5039495;28;20209;-75
2023/06/30 05:27:24;;;;;;;6.73;2.03;;;;;;;18.62;100.00;101160.47;5049751;28;20245;-75
2023/06/30 05:29:50;;;;;;;4.60;2.17;;;;;;;18.55;100.00;101161.38;5053001;28;20192;-75
2023/06/30 05:32:15;;;;;;;4.40;2.63;;;;;;;18.52;100.00;101163.97;5049179;28;20197;-75
2023/06/30 05:34:41;;;;;;;4.03;2.30;;;;;;;18.51;100.00;101166.59;5047242;28;20212;-75
2023/06/30 05:37:07;;;;;;;5.03;2.23;;;;;;;18.41;100.00;101160.63;5046152;28;20214;-75
2023/06/30 05:39:32;;;;;;;4.80;2.23;;;;;;;18.39;100.00;101167.56;5042650;28;20599;-75
2023/06/30 05:41:59;;;;;;;5.00;2.70;;;;;;;18.36;100.00;101158.91;5037194;28;20198;-75
2023/06/30 05:44:26;;;;;;;5.87;3.00;;;;;;;18.38;100.00;101157.19;5052058;28;20194;-75
2023/06/30 05:46:52;;;;;;;4.63;2.60;;;;;;;18.39;100.00;101158.91;5050073;28;20213;-75
2023/06/30 05:49:19;;;;;;;6.30;2.93;;;;;;;18.43;100.00;101170.97;5046108;28;20614;-75
2023/06/30 05:51:44;;;;;;;4.50;2.47;;;;;;;18.47;100.00;101162.31;5044312;28;20182;-75
2023/06/30 05:54:12;;;;;;;5.20;2.50;;;;;;;18.50;100.00;101165.75;5043748;28;20197;-74
2023/06/30 05:56:38;;;;;;;5.17;2.57;;;;;;;18.48;100.00;101167.50;5050228;28;20216;-74
2023/06/30 05:59:09;;;;;;;5.83;2.43;;;;;;;18.46;100.00;101164.03;5048284;28;20254;-75
2023/06/30 06:01:40;;;;;;;5.03;2.70;;;;;;;18.42;100.00;101159.72;5035732;28;20218;-75
2023/06/30 06:04:11;;;;;;;5.30;2.30;;;;;;;18.39;100.00;101158.91;5049625;28;20185;-75
2023/06/30 06:06:40;;;;;;;4.50;2.20;;;;;;;18.31;100.00;101156.34;5051902;28;20214;-75
2023/06/30 06:09:07;;;;;;;4.53;2.57;;;;;;;18.30;100.00;101159.81;5039521;28;20221;-75
2023/06/30 06:11:33;;;;;;;5.53;2.43;;;;;;;18.28;100.00;101156.34;5047044;28;20206;-75
2023/06/30 06:14:00;;;;;;;5.03;2.60;;;;;;;18.26;100.00;101167.59;5054070;28;20202;-75
2023/06/30 06:16:26;;;;;;;4.80;2.40;;;;;;;18.20;100.00;101168.50;5035362;28;20785;-75
2023/06/30 06:18:54;;;;;;;5.07;2.67;;;;;;;18.23;100.00;101170.25;5061363;28;20588;-74
2023/06/30 06:21:26;;;;;;;4.43;2.43;;;;;;;18.17;100.00;101170.25;5033050;28;20792;-75
2023/06/30 06:23:57;;;;;;;3.37;2.30;;;;;;;18.05;100.00;101180.72;5039163;28;20224;-74
2023/06/30 06:26:23;;;;;;;5.60;2.50;;;;;;;18.01;100.00;101184.19;5042408;28;20216;-74
2023/06/30 06:28:53;;;;;;;4.70;2.30;;;;;;;17.93;100.00;101179.06;5039484;28;20574;-74
2023/06/30 06:31:24;;;;;;;4.63;2.70;;;;;;;17.95;100.00;101185.06;5018618;28;20197;-74
2023/06/30 06:33:50;;;;;;;3.93;2.43;;;;;;;17.91;100.00;101183.34;5048308;28;20194;-74
2023/06/30 06:36:16;;;;;;;3.87;2.60;;;;;;;17.86;100.00;101185.13;5024236;28;20194;-74
2023/06/30 06:38:42;;;;;;;6.00;3.17;;;;;;;17.81;100.00;101181.69;5033440;28;20213;-74
2023/06/30 06:41:10;;;;;;;2.40;2.20;;;;;;;17.86;100.00;101179.94;5040275;28;20210;-75
2023/06/30 06:43:39;;;;;;;3.90;2.30;;;;;;;17.80;100.00;101182.56;5055084;28;20196;-74
2023/06/30 06:46:05;;;;;;;3.97;2.53;;;;;;;17.86;100.00;101186.84;5028851;28;20213;-75
2023/06/30 06:48:31;;;;;;;3.10;2.70;;;;;;;17.88;100.00;101185.13;5045138;28;20214;-75
2023/06/30 06:50:58;;;;;;;3.07;2.70;;;;;;;17.90;100.00;101184.22;5047636;28;20193;-75
2023/06/30 06:53:26;;;;;;;4.30;3.13;;;;;;;17.94;100.00;101195.44;5040429;28;20190;-75
2023/06/30 06:55:53;;;;;;;3.80;2.73;;;;;;;17.99;100.00;101198.88;5041060;28;20223;-75
2023/06/30 06:58:19;;;;;;;4.67;3.33;;;;;;;18.00;100.00;101205.81;5051502;28;20222;-74
2023/06/30 07:00:46;;;;;;;4.43;2.90;;;;;;;17.98;100.00;101213.56;5053271;28;20208;-75
2023/06/30 07:03:12;;;;;;;5.30;3.00;;;;;;;17.97;100.00;101214.41;5046661;28;20206;-75
2023/06/30 07:05:39;;;;;;;2.87;2.47;;;;;;;17.98;100.00;101210.09;5048934;28;20219;-74
2023/06/30 07:08:08;;;;;;;4.67;2.80;;;;;;;17.99;100.00;101214.41;5042515;28;20225;-74
2023/06/30 07:10:34;;;;;;;5.17;2.70;;;;;;;17.97;100.00;101214.41;5041670;28;20186;-75
2023/06/30 07:12:59;;;;;;;4.53;2.60;;;;;;;18.02;100.00;101207.50;5052007;28;20658;-75
2023/06/30 07:15:25;;;;;;;4.90;2.50;;;;;;;18.08;100.00;101211.78;5051235;28;20211;-74
2023/06/30 07:17:51;;;;;;;5.10;2.37;;;;;;;18.08;100.00;101214.38;5048349;28;20259;-75
2023/06/30 07:20:16;;;;;;;4.20;2.50;;;;;;;18.10;100.00;101216.09;5048039;28;20247;-75
2023/06/30 07:22:42;;;;;;;4.70;2.63;;;;;;;18.20;100.00;101216.91;5046790;28;20235;-75
2023/06/30 07:25:08;;;;;;;4.33;2.57;;;;;;;18.20;100.00;101222.09;5055660;28;20240;-74
2023/06/30 07:27:37;;;;;;;2.87;2.07;;;;;;;18.19;100.00;101223.81;5055526;28;20264;-74
2023/06/30 07:30:03;;;;;;;5.57;2.97;;;;;;;18.19;100.00;101228.16;5051014;28;20635;-74
2023/06/30 07:32:31;;;;;;;4.00;2.43;;;;;;;18.21;100.00;101226.41;5051688;28;20722;-74
2023/06/30 07:34:56;;;;;;;4.63;2.50;;;;;;;18.19;100.00;101226.41;5046777;28;20195;-74
2023/06/30 07:37:21;;;;;;;4.27;2.43;;;;;;;18.21;100.00;101222.09;5040077;28;20678;-74
2023/06/30 07:39:47;;;;;;;5.93;2.57;;;;;;;18.19;100.00;101225.56;5040755;28;20221;-75
2023/06/30 07:42:14;;;;;;;3.80;2.17;;;;;;;18.20;100.00;101225.53;5047430;28;20205;-74
2023/06/30 07:44:40;;;;;;;3.37;2.07;;;;;;;18.18;100.00;101218.63;5052764;28;20539;-75
2023/06/30 07:47:05;;;;;;;3.90;2.40;;;;;;;18.11;100.00;101227.34;5049184;28;20243;-75
2023/06/30 07:49:31;;;;;;;5.53;2.43;;;;;;;17.98;100.00;101228.25;5058006;28;20564;-75
2023/06/30 07:51:56;;;;;;;2.33;2.00;;;;;;;17.88;100.00;101227.44;5043995;28;20189;-75
2023/06/30 07:54:22;;;;;;;3.03;2.47;;;;;;;17.87;100.00;101237.81;5029521;28;20201;-78
2023/06/30 07:56:47;;;;;;;3.60;2.03;;;;;;;17.83;100.00;101231.75;5040838;28;20236;-78
2023/06/30 07:59:13;;;;;;;5.13;2.20;;;;;;;17.87;100.00;101232.63;5053834;28;20244;-75
2023/06/30 08:01:38;;;;;;;4.70;2.23;;;;;;;17.86;100.00;101233.47;5050343;28;20578;-76
2023/06/30 08:04:04;;;;;;;3.77;2.20;;;;;;;17.83;100.00;101231.75;5055972;28;20335;-75
2023/06/30 08:06:29;;;;;;;3.73;1.97;;;;;;;17.80;100.00;101236.09;5051629;28;20209;-76
2023/06/30 08:08:54;;;;;;;6.77;2.43;;;;;;;17.96;100.00;101228.25;5060558;28;20189;-76
2023/06/30 08:11:20;;;;;;;2.90;2.20;;;;;;;18.02;100.00;101223.06;5055067;28;20570;-77
2023/06/30 08:13:45;;;;;;;5.97;2.13;;;;;;;18.16;100.00;101221.25;5054945;28;20394;-76
2023/06/30 08:16:11;;;;;;;5.83;2.30;;;;;;;18.27;100.00;101224.66;5054150;28;20201;-75
2023/06/30 08:18:36;;;;;;;5.00;2.40;;;;;;;18.40;100.00;101226.34;5057359;28;20259;-75
2023/06/30 08:21:02;;;;;;;4.60;2.23;;;;;;;18.65;100.00;101219.25;5059137;28;20248;-76
2023/06/30 08:23:28;;;;;;;4.90;2.07;;;;;;;19.02;100.00;101233.66;5056612;28;20926;-76
2023/06/30 08:25:55;;;;;;;7.27;1.97;;;;;;;19.36;100.00;101228.16;5050372;28;20213;-76
2023/06/30 08:28:21;;;;;;;4.47;1.97;;;;;;;19.43;100.00;101231.56;5057629;28;20228;-76
2023/06/30 08:30:47;;;;;;;5.43;1.67;;;;;;;19.39;100.00;101238.50;5057757;28;20192;-76
2023/06/30 08:33:13;;;;;;;4.40;1.80;;;;;;;19.34;100.00;101240.28;5052076;28;20193;-77
2023/06/30 08:35:38;;;;;;;6.17;1.87;;;;;;;19.37;100.00;101236.78;5054691;28;20841;-76
2023/06/30 08:38:05;;;;;;;5.53;1.70;;;;;;;19.64;100.00;101236.50;5052348;28;20698;-76
2023/06/30 08:40:31;;;;;;;5.27;1.93;;;;;;;20.33;100.00;101239.13;5044940;28;20217;-75
2023/06/30 08:43:13;;;;;;;2.73;1.47;;;;;;;20.72;100.00;101238.53;5058549;28;20189;-74
2023/06/30 08:45:39;;;;;;;5.80;1.50;;;;;;;20.66;100.00;101227.34;5059428;28;20253;-75
2023/06/30 08:48:06;;;;;;;3.47;1.60;;;;;;;21.15;100.00;101226.53;5054362;28;20221;-74
2023/06/30 08:50:35;;;;;;;2.97;1.50;;;;;;;21.10;100.00;101223.16;5053246;28;20201;-75
2023/06/30 08:53:02;;;;;;;6.20;2.10;;;;;;;21.37;100.00;101214.00;5053195;28;20189;-76
2023/06/30 08:55:28;;;;;;;4.67;1.97;;;;;;;21.61;100.00;101214.38;5051989;28;20229;-76
2023/06/30 08:57:56;;;;;;;3.03;1.97;;;;;;;21.90;100.00;101206.88;5053889;28;20263;-76
2023/06/30 09:00:22;;;;;;;5.00;2.30;;;;;;;22.29;100.00;101184.28;5049538;28;20853;-76
2023/06/30 09:02:48;;;;;;;6.77;2.50;;;;;;;22.26;100.00;101189.56;5067070;28;20205;-76
2023/06/30 09:05:14;;;;;;;3.73;1.67;;;;;;;22.29;100.00;101152.97;5055033;28;20209;-75
2023/06/30 09:07:46;;;;;;;3.97;1.73;;;;;;;22.67;100.00;101193.81;5051887;28;20232;-76
2023/06/30 09:10:12;;;;;;;4.45;1.98;;;;;;;23.01;100.00;101153.75;5049019;28;20201;-76
2023/06/30 09:12:40;;;;;;;4.55;2.25;;;;;;;23.16;100.00;101161.19;5059511;28;20757;-76
2023/06/30 09:15:08;;;;;;;6.38;2.15;;;;;;;22.87;100.00;101128.88;5057531;28;20217;-75
2023/06/30 09:17:34;;;;;;;3.70;1.85;;;;;;;23.38;100.00;101110.06;5052216;28;20263;-76
2023/06/30 09:20:00;;;;;;;2.40;1.52;;;;;;;22.43;100.00;101101.28;5048044;28;20252;-75
2023/06/30 09:22:25;;;;;;;4.38;1.90;;;;;;;23.22;100.00;101100.06;5053101;28;20243;-75
2023/06/30 09:24:51;;;;;;;2.50;1.40;;;;;;;22.98;100.00;101104.19;5048832;28;20196;-74
2023/06/30 09:27:17;;;;;;;3.70;1.60;;;;;;;22.98;100.00;101151.22;5045012;28;20214;-75
2023/06/30 09:29:52;;;;;;;5.22;2.15;;;;;;;23.10;100.00;101155.25;5067396;28;20546;-76
2023/06/30 09:32:18;;;;;;;3.67;1.70;;;;;;;22.90;100.00;101145.34;5053683;28;20310;-76
2023/06/30 09:34:43;;;;;;;3.20;1.70;;;;;;;22.84;100.00;101169.00;5056046;28;20701;-75
2023/06/30 09:37:14;;;;;;;3.22;1.38;;;;;;;22.74;100.00;101083.94;5046021;28;20258;-76
2023/06/30 09:39:42;;;;;;;1.90;1.40;;;;;;;22.69;100.00;101093.66;5050931;28;20189;-75
2023/06/30 09:42:15;;;;;;;2.80;1.40;;;;;;;22.97;100.00;101083.34;5056895;28;20205;-76
2023/06/30 09:44:41;;;;;;;4.15;1.30;;;;;;;23.20;100.00;101053.06;5058236;28;20197;-76
2023/06/30 09:47:07;;;;;;;5.20;1.33;;;;;;;22.88;100.00;101020.91;5046498;28;20232;-75
2023/06/30 09:49:32;;;;;;;3.28;1.50;;;;;;;23.47;100.00;101054.00;5054733;28;20198;-74
2023/06/30 09:52:01;;;;;;;2.90;1.33;;;;;;;23.64;100.00;101055.25;5052895;28;20674;-74
2023/06/30 09:54:29;;;;;;;4.35;1.35;;;;;;;23.91;100.00;101072.72;5050399;28;20787;-76
2023/06/30 09:56:58;;;;;;;3.03;1.38;;;;;;;23.74;100.00;101003.47;5054276;28;20627;-74
2023/06/30 09:59:24;;;;;;;4.10;1.45;;;;;;;23.61;100.00;101025.72;5054444;28;20194;-75
2023/06/30 10:01:52;;;;;;;3.13;1.42;;;;;;;23.50;100.00;101023.41;5057979;28;20716;-76
2023/06/30 10:04:18;;;;;;;3.42;1.25;;;;;;;23.50;100.00;100997.28;5066015;28;20198;-75
2023/06/30 10:06:47;;;;;;;5.95;1.52;;;;;;;24.09;92.86;100943.91;5045170;28;20232;-75
2023/06/30 10:09:15;;;;;;;2.75;1.40;;;;;;;24.48;94.79;100950.34;5053185;28;20215;-74
2023/06/30 10:11:44;;;;;;;3.28;1.40;;;;;;;24.28;91.77;100928.38;5053371;28;20197;-75
2023/06/30 10:14:10;;;;;;;4.50;1.48;;;;;;;24.27;92.07;100939.78;5052798;28;20247;-74
2023/06/30 10:16:37;;;;;;;2.13;1.20;;;;;;;24.56;92.82;100935.22;5055764;28;20810;-76
2023/06/30 10:19:05;;;;;;;2.25;1.13;;;;;;;24.71;87.27;100926.81;5049313;28;20556;-75
2023/06/30 10:21:32;;;;;;;5.45;2.53;;;;;;;24.98;86.37;100917.94;5058716;28;20229;-75
2023/06/30 10:24:01;;;;;;;3.85;1.50;;;;;;;24.94;72.17;100857.81;5045726;28;20196;-75
2023/06/30 10:26:27;;;;;;;3.05;1.40;;;;;;;25.32;68.73;100858.03;5053343;28;20220;-75
2023/06/30 10:28:54;;;;;;;3.47;1.63;;;;;;;24.35;75.37;100891.47;5058298;28;20197;-75
2023/06/30 10:31:20;;;;;;;2.20;1.27;;;;;;;24.87;78.52;100922.69;5057079;28;20186;-74
2023/06/30 10:33:46;;;;;;;3.22;1.20;;;;;;;24.88;80.53;100931.44;5053100;28;20197;-75
2023/06/30 10:36:12;;;;;;;3.67;1.25;;;;;;;25.23;67.57;100866.22;5032449;28;20194;-75
2023/06/30 10:38:40;;;;;;;2.97;1.35;;;;;;;25.86;65.68;100860.09;5052814;28;20193;-75
2023/06/30 10:41:19;;;;;;;3.42;1.60;;;;;;;25.89;60.54;100826.72;5045024;28;20578;-75
2023/06/30 10:44:03;;;;;;;1.63;1.20;;;;;;;25.10;67.05;100883.34;5061978;28;20193;-75
2023/06/30 10:46:47;;;;;;;2.45;1.17;;;;;;;25.59;61.89;100846.41;5055290;28;20630;-75
2023/06/30 10:49:40;;;;;;;5.15;1.30;;;;;;;25.89;55.26;100812.75;5048549;28;20215;-75
2023/06/30 10:52:24;;;;;;;2.75;1.30;;;;;;;26.07;67.08;100875.81;5046098;28;20209;-75
2023/06/30 10:54:50;;;;;;;5.53;1.42;;;;;;;25.95;67.93;100893.88;5052302;28;20726;-76
2023/06/30 10:57:19;;;;;;;2.60;1.42;;;;;;;26.05;63.58;100869.78;5056114;28;20300;-74
2023/06/30 10:59:45;;;;;;;3.92;1.52;;;;;;;26.01;61.19;100860.34;5053894;28;20189;-75
2023/06/30 11:02:17;;;;;;;3.30;1.20;;;;;;;25.97;60.90;100863.19;5054793;28;20236;-74
2023/06/30 11:04:44;;;;;;;4.05;1.70;;;;;;;26.02;63.23;100874.34;5052015;28;20238;-74
2023/06/30 11:07:11;;;;;;;2.63;1.30;;;;;;;26.14;62.65;100860.66;5067588;28;20592;-74
2023/06/30 11:09:48;;;;;;;3.35;1.52;;;;;;;26.67;63.10;100867.00;5046904;28;20232;-74
2023/06/30 11:12:15;;;;;;;3.58;1.40;;;;;;;26.47;59.44;100856.53;5030496;28;20201;-75
2023/06/30 11:14:54;;;;;;;2.67;1.13;;;;;;;26.19;60.84;100869.19;5047917;28;20198;-75